Time;durP1;ratioP1;P1;durP2;ratioP2;P2;SDS_P1;SDS_P2;PMS_P1;PMS_P2;Temp;Humidity;BMP_temperature;BMP_pressure;BME280_temperature;BME280_humidity;BME280_pressure;Samples;Min_cycle;Max_cycle;Signal;HPM_P1;HPM_P2
2021/09/01 00:02:32;;;;;;;2.67;1.62;;;;;;;20.66;100.00;98812.39;4415507;81;28491;-76
2021/09/01 00:08:34;;;;;;;1.95;1.60;;;;;;;20.88;100.00;98819.91;4407634;79;28592;-77
2021/09/01 00:14:35;;;;;;;2.42;1.75;;;;;;;20.66;100.00;98820.05;4397691;79;28480;-77
2021/09/01 00:20:37;;;;;;;2.70;1.57;;;;;;;20.53;100.00;98837.24;4419669;81;28453;-77
2021/09/01 00:26:39;;;;;;;2.60;1.40;;;;;;;20.81;100.00;98835.86;4464293;78;28500;-77
2021/09/01 00:32:40;;;;;;;3.30;1.67;;;;;;;20.64;100.00;98835.93;4473401;80;28453;-76
2021/09/01 00:38:43;;;;;;;2.27;1.52;;;;;;;20.47;100.00;98844.72;4465644;80;28535;-76
2021/09/01 00:44:46;;;;;;;2.10;1.42;;;;;;;20.19;100.00;98852.28;4394698;80;28488;-77
2021/09/01 00:50:53;;;;;;;2.35;1.50;;;;;;;20.70;100.00;98847.56;4396122;81;28499;-76
2021/09/01 00:57:03;;;;;;;3.25;1.77;;;;;;;20.66;100.00;98845.16;4396449;81;28479;-77
2021/09/01 01:03:04;;;;;;;2.27;1.40;;;;;;;20.69;100.00;98860.39;4396844;81;28496;-78
2021/09/01 01:09:05;;;;;;;2.12;1.20;;;;;;;20.44;100.00;98864.42;4404556;80;28500;-77
2021/09/01 01:15:08;;;;;;;1.82;1.20;;;;;;;20.41;100.00;98863.66;4436468;80;28453;-77
2021/09/01 01:21:09;;;;;;;1.57;0.80;;;;;;;20.34;100.00;98868.95;4436071;80;28521;-77
2021/09/01 01:27:30;;;;;;;1.05;0.82;;;;;;;20.16;100.00;98867.11;4327621;81;28456;-76
2021/09/01 01:33:31;;;;;;;1.60;0.90;;;;;;;20.18;100.00;98871.14;4318995;81;28558;-76
2021/09/01 01:39:33;;;;;;;2.83;0.80;;;;;;;20.18;100.00;98881.27;4333341;80;28527;-78
2021/09/01 01:45:42;;;;;;;1.85;0.70;;;;;;;20.32;100.00;98879.36;4392613;81;28500;-78
2021/09/01 01:51:52;;;;;;;1.65;0.55;;;;;;;20.29;100.00;98885.44;4378037;80;28506;-78
2021/09/01 01:57:53;;;;;;;0.70;0.50;;;;;;;20.09;100.00;98887.94;4407831;80;28599;-78
2021/09/01 02:03:54;;;;;;;1.22;0.65;;;;;;;20.11;100.00;98882.20;4393494;81;28467;-78
2021/09/01 02:09:56;;;;;;;1.52;0.57;;;;;;;20.68;100.00;98882.00;4397031;81;28474;-78
2021/09/01 02:15:57;;;;;;;0.78;0.40;;;;;;;20.79;100.00;98882.63;4396927;81;28540;-78
2021/09/01 02:21:58;;;;;;;1.22;0.50;;;;;;;20.74;100.00;98880.80;4411282;80;28434;-79
2021/09/01 02:28:00;;;;;;;1.12;0.50;;;;;;;20.36;100.00;98881.48;4428994;80;28450;-79
2021/09/01 02:34:01;;;;;;;0.90;0.80;;;;;;;20.33;100.00;98891.11;4352062;80;28577;-79
2021/09/01 02:40:03;;;;;;;2.47;0.90;;;;;;;19.31;100.00;98895.87;4412947;79;28483;-79
2021/09/01 02:46:05;;;;;;;1.60;1.00;;;;;;;19.95;100.00;98895.28;4391739;79;28547;-79
2021/09/01 02:52:06;;;;;;;1.02;0.78;;;;;;;19.36;100.00;98901.81;4398246;81;28537;-79
2021/09/01 02:58:08;;;;;;;1.90;0.72;;;;;;;19.70;100.00;98912.27;4399827;80;28474;-79
2021/09/01 03:04:09;;;;;;;1.65;0.80;;;;;;;19.38;100.00;98911.87;4400921;80;28503;-78
2021/09/01 03:10:10;;;;;;;1.20;0.80;;;;;;;19.61;100.00;98918.92;4376961;80;28558;-78
2021/09/01 03:16:12;;;;;;;2.27;0.80;;;;;;;19.18;100.00;98924.64;4398203;80;28441;-78
2021/09/01 03:22:13;;;;;;;1.98;0.88;;;;;;;19.43;100.00;98921.36;4399768;81;28479;-78
2021/09/01 03:28:14;;;;;;;1.67;0.80;;;;;;;19.45;100.00;98921.87;4399752;81;28547;-78
2021/09/01 03:34:16;;;;;;;2.17;0.70;;;;;;;19.29;100.00;98928.08;4399690;81;28477;-79
2021/09/01 03:40:18;;;;;;;1.57;0.90;;;;;;;19.38;100.00;98924.13;4401182;80;28510;-78
2021/09/01 03:46:19;;;;;;;1.65;1.05;;;;;;;19.47;100.00;98938.73;4399826;80;28477;-79
2021/09/01 03:52:21;;;;;;;1.70;0.80;;;;;;;19.20;100.00;98947.53;4399818;80;28461;-79
2021/09/01 03:58:22;;;;;;;1.50;1.02;;;;;;;19.18;100.00;98953.27;4400020;81;28498;-78
2021/09/01 04:04:25;;;;;;;1.35;0.80;;;;;;;19.41;100.00;98958.19;4399988;80;28476;-78
2021/09/01 04:10:27;;;;;;;1.50;0.85;;;;;;;18.90;100.00;98961.19;4399043;80;28590;-76
2021/09/01 04:16:28;;;;;;;1.65;0.70;;;;;;;19.06;100.00;98970.58;4399840;81;28487;-76
2021/09/01 04:22:30;;;;;;;4.20;0.80;;;;;;;19.04;100.00;98976.30;4399743;81;28466;-78
2021/09/01 04:28:31;;;;;;;1.35;0.70;;;;;;;19.19;100.00;98974.52;4396058;80;28533;-77
2021/09/01 04:34:32;;;;;;;1.45;0.75;;;;;;;19.51;100.00;98981.23;4399358;81;28539;-77
2021/09/01 04:40:33;;;;;;;0.95;0.65;;;;;;;19.17;100.00;98993.08;4397734;80;28481;-77
2021/09/01 04:46:35;;;;;;;0.70;0.55;;;;;;;19.25;100.00;98997.88;4343359;81;28487;-77
2021/09/01 04:52:36;;;;;;;2.85;0.90;;;;;;;19.40;100.00;99007.00;4369507;81;28550;-77
2021/09/01 04:58:37;;;;;;;1.20;0.72;;;;;;;19.58;100.00;99015.78;4323773;81;28464;-77
2021/09/01 05:04:38;;;;;;;1.02;0.50;;;;;;;19.19;100.00;99027.09;4381385;81;28543;-78
2021/09/01 05:10:40;;;;;;;0.98;0.70;;;;;;;19.19;100.00;99029.83;4330350;81;28460;-77
2021/09/01 05:16:41;;;;;;;2.40;0.90;;;;;;;19.44;100.00;99033.92;4324517;82;28460;-77
2021/09/01 05:22:48;;;;;;;2.87;1.00;;;;;;;19.46;100.00;99040.72;4324690;81;28472;-76
2021/09/01 05:28:50;;;;;;;1.55;0.90;;;;;;;19.25;100.00;99050.22;4395876;79;28455;-76
2021/09/01 05:34:56;;;;;;;1.45;0.90;;;;;;;19.42;100.00;99053.31;4386256;79;28590;-77
2021/09/01 05:40:58;;;;;;;1.70;1.20;;;;;;;19.38;100.00;99054.98;4395603;80;28511;-77
2021/09/01 05:47:01;;;;;;;2.00;1.32;;;;;;;19.43;100.00;99053.58;4380466;79;28516;-77
2021/09/01 05:53:03;;;;;;;2.37;1.37;;;;;;;18.75;100.00;99062.09;4355161;79;28566;-76
2021/09/01 05:59:11;;;;;;;1.77;1.40;;;;;;;19.23;100.00;99066.31;4378084;79;28587;-77
2021/09/01 06:05:13;;;;;;;3.52;1.70;;;;;;;19.28;100.00;99068.72;4385934;79;28472;-76
2021/09/01 06:11:16;;;;;;;4.70;2.02;;;;;;;19.43;100.00;99077.28;4321139;82;28479;-76
2021/09/01 06:17:17;;;;;;;3.90;1.80;;;;;;;19.01;100.00;99084.50;4374088;81;28478;-76
2021/09/01 06:23:19;;;;;;;1.98;1.47;;;;;;;19.67;100.00;99088.20;4336299;80;28460;-76
2021/09/01 06:29:20;;;;;;;3.85;1.70;;;;;;;19.28;100.00;99097.34;4382204;81;28432;-76
2021/09/01 06:35:22;;;;;;;2.80;1.80;;;;;;;19.49;100.00;99096.02;4370571;81;28490;-79
2021/09/01 06:41:23;;;;;;;2.58;1.60;;;;;;;19.60;100.00;99104.09;4376204;80;28502;-76
2021/09/01 06:47:25;;;;;;;2.37;1.67;;;;;;;19.48;100.00;99111.33;4357572;82;28548;-77
2021/09/01 06:53:26;;;;;;;2.70;1.60;;;;;;;19.22;100.00;99121.10;4367563;81;28582;-76
2021/09/01 06:59:27;;;;;;;1.80;1.32;;;;;;;19.41;100.00;99130.72;4365244;82;28501;-75
2021/09/01 07:05:31;;;;;;;2.70;1.47;;;;;;;19.13;100.00;99132.35;4372200;81;28482;-75
2021/09/01 07:11:32;;;;;;;1.98;1.12;;;;;;;19.41;100.00;99139.47;4364838;82;28568;-75
2021/09/01 07:17:33;;;;;;;2.80;1.30;;;;;;;19.04;100.00;99145.22;4372006;81;28517;-76
2021/09/01 07:23:34;;;;;;;2.20;1.45;;;;;;;19.32;100.00;99159.17;4351715;82;28474;-87
2021/09/01 07:29:36;;;;;;;1.60;1.22;;;;;;;19.31;100.00;99156.18;4390219;80;28481;-88
2021/09/01 07:35:38;;;;;;;1.32;1.12;;;;;;;19.22;100.00;99163.34;4445708;79;28568;-88
2021/09/01 07:41:39;;;;;;;2.33;0.98;;;;;;;19.48;100.00;99169.38;4435602;80;28532;-89
2021/09/01 07:47:52;;;;;;;1.52;0.85;;;;;;;19.63;100.00;99169.78;4436021;80;28473;-89
2021/09/01 07:53:53;;;;;;;1.55;0.90;;;;;;;19.36;100.00;99191.56;4434998;80;28532;-88
2021/09/01 07:59:56;;;;;;;2.20;0.98;;;;;;;19.56;100.00;99198.50;4439251;80;28450;-88
2021/09/01 08:05:59;;;;;;;1.37;0.88;;;;;;;19.17;100.00;99205.64;4439623;80;28499;-87
2021/09/01 08:12:01;;;;;;;1.07;0.80;;;;;;;19.47;100.00;99211.38;4440417;80;28504;-89
2021/09/01 08:18:03;;;;;;;1.02;0.62;;;;;;;19.23;100.00;99216.22;4415610;80;28448;-87
2021/09/01 08:24:05;;;;;;;1.07;0.70;;;;;;;19.55;100.00;99218.12;4349893;80;28507;-90
2021/09/01 08:30:08;;;;;;;1.40;0.90;;;;;;;19.50;100.00;99233.17;4364910;80;28457;-89
2021/09/01 08:36:09;;;;;;;1.70;0.80;;;;;;;19.57;100.00;99230.91;4332563;82;28471;-88
2021/09/01 08:42:11;;;;;;;1.12;0.68;;;;;;;19.72;100.00;99246.32;4346655;81;28504;-91
2021/09/01 08:48:15;;;;;;;0.72;0.60;;;;;;;19.62;100.00;99253.23;4336460;81;28472;-85
2021/09/01 08:54:17;;;;;;;0.95;0.70;;;;;;;19.56;100.00;99262.01;4331861;81;28458;-87
2021/09/01 09:00:19;;;;;;;1.17;0.88;;;;;;;19.02;100.00;99274.12;4306734;81;28484;-85
2021/09/01 09:06:20;;;;;;;0.95;0.70;;;;;;;18.95;100.00;99283.11;4379327;79;28458;-87
2021/09/01 09:12:32;;;;;;;3.35;1.40;;;;;;;18.91;100.00;99292.41;4372989;79;28445;-86
2021/09/01 09:18:36;;;;;;;3.75;1.92;;;;;;;19.11;100.00;99301.60;4362424;79;28512;-86
2021/09/01 09:24:38;;;;;;;3.83;2.70;;;;;;;19.22;100.00;99300.44;4360328;79;28464;-86
2021/09/01 09:30:45;;;;;;;3.98;3.05;;;;;;;18.74;100.00;99305.00;4365541;79;28558;-85
2021/09/01 09:37:05;;;;;;;5.15;3.40;;;;;;;19.22;100.00;99306.43;4361402;79;28467;-85
2021/09/01 09:43:19;;;;;;;6.53;3.85;;;;;;;19.34;100.00;99314.27;4352801;79;28487;-82
2021/09/01 09:49:30;;;;;;;7.35;5.00;;;;;;;19.77;100.00;99309.56;4334626;80;28456;-83
2021/09/01 09:55:34;;;;;;;6.90;4.78;;;;;;;19.78;100.00;99318.84;4326944;82;28520;-83
2021/09/01 10:01:35;;;;;;;8.98;5.97;;;;;;;19.55;100.00;99329.13;4351809;80;28527;-84
2021/09/01 10:07:36;;;;;;;7.85;6.22;;;;;;;19.58;100.00;99328.02;4317763;80;28560;-83
2021/09/01 10:13:41;;;;;;;9.63;6.72;;;;;;;20.30;100.00;99338.03;4340295;80;28505;-84
2021/09/01 10:19:43;;;;;;;12.13;8.63;;;;;;;20.03;100.00;99340.77;4407800;80;28426;-84
2021/09/01 10:25:51;;;;;;;11.30;8.10;;;;;;;19.88;100.00;99345.20;4401057;79;28440;-84
2021/09/01 10:31:58;;;;;;;11.28;8.33;;;;;;;20.91;100.00;99345.87;4357498;80;28446;-85
2021/09/01 10:38:05;;;;;;;11.08;7.33;;;;;;;20.35;100.00;99355.74;4346024;80;28506;-84
2021/09/01 10:44:19;;;;;;;9.93;7.50;;;;;;;20.96;100.00;99358.91;4340211;80;28470;-83
2021/09/01 10:50:37;;;;;;;12.78;8.28;;;;;;;21.54;100.00;99363.05;4329757;80;28598;-83
2021/09/01 10:56:55;;;;;;;9.90;7.45;;;;;;;20.92;100.00;99372.88;4333882;80;28539;-83
2021/09/01 11:02:53;;;;;;;10.45;7.87;;;;;;;19.97;100.00;99386.92;4408795;78;28596;-81
2021/09/01 11:09:14;;;;;;;10.80;7.33;;;;;;;21.24;97.43;99397.92;4337938;80;28447;-82
2021/09/01 11:15:16;;;;;;;12.93;8.88;;;;;;;21.27;99.14;99399.52;4328794;80;28560;-85
2021/09/01 11:21:17;;;;;;;11.63;8.70;;;;;;;21.30;95.76;99407.70;4334691;80;28464;-84
2021/09/01 11:27:25;;;;;;;11.83;9.25;;;;;;;20.91;99.48;99415.55;4346549;80;28572;-83
2021/09/01 11:33:26;;;;;;;11.08;8.30;;;;;;;21.20;91.31;99416.03;4370755;80;28488;-83
2021/09/01 11:39:28;;;;;;;10.45;7.80;;;;;;;21.80;86.89;99419.59;4355687;80;28744;-83
2021/09/01 11:45:29;;;;;;;9.60;8.20;;;;;;;22.10;86.25;99419.40;4328593;80;28468;-83
2021/09/01 11:51:31;;;;;;;9.98;8.00;;;;;;;21.71;90.60;99420.00;4334764;80;28488;-82
2021/09/01 11:57:32;;;;;;;10.60;8.88;;;;;;;21.97;82.50;99423.70;4343259;80;28478;-83
2021/09/01 12:03:34;;;;;;;10.95;8.40;;;;;;;21.99;83.19;99426.98;4335593;80;28450;-84
2021/09/01 12:09:36;;;;;;;11.33;8.33;;;;;;;22.00;79.12;99426.66;4340783;80;28539;-84
2021/09/01 12:15:37;;;;;;;9.03;6.30;;;;;;;21.85;82.39;99427.71;4416275;78;28466;-84
2021/09/01 12:21:58;;;;;;;9.93;6.03;;;;;;;21.62;87.72;99431.32;4425989;79;28456;-84
2021/09/01 12:28:14;;;;;;;10.15;5.35;;;;;;;21.79;88.94;99432.20;4341312;80;28522;-83
2021/09/01 12:34:12;;;;;;;9.18;5.45;;;;;;;22.45;87.82;99430.05;4321719;81;28439;-83
2021/09/01 12:40:14;;;;;;;8.35;5.62;;;;;;;22.30;89.80;99433.32;4379349;79;28499;-84
2021/09/01 12:46:21;;;;;;;7.72;5.25;;;;;;;22.05;87.61;99443.56;4341450;80;28458;-84
2021/09/01 12:52:24;;;;;;;9.23;5.47;;;;;;;22.48;88.10;99441.22;4335122;82;28466;-83
2021/09/01 12:58:25;;;;;;;8.93;5.50;;;;;;;22.78;89.24;99434.12;4346621;80;28462;-83
2021/09/01 13:04:28;;;;;;;7.10;4.58;;;;;;;22.69;81.77;99432.66;4331606;81;28515;-85
2021/09/01 13:10:32;;;;;;;7.95;4.78;;;;;;;22.84;80.88;99428.81;4324997;80;28515;-84
2021/09/01 13:16:34;;;;;;;5.20;4.00;;;;;;;22.79;82.10;99431.09;4322056;80;28521;-84
2021/09/01 13:22:36;;;;;;;8.30;5.25;;;;;;;22.19;76.21;99440.08;4336013;80;28539;-86
2021/09/01 13:28:37;;;;;;;12.07;4.53;;;;;;;22.42;76.85;99439.13;4323432;80;28504;-85
2021/09/01 13:34:39;;;;;;;7.42;4.20;;;;;;;22.27;75.54;99448.96;4327993;80;28460;-85
2021/09/01 13:40:40;;;;;;;7.10;3.98;;;;;;;22.33;76.34;99457.36;4319981;80;28452;-85
2021/09/01 13:46:41;;;;;;;7.97;4.17;;;;;;;22.94;75.52;99451.92;4330998;80;28448;-83
2021/09/01 13:52:43;;;;;;;5.75;3.50;;;;;;;22.94;73.26;99444.23;4350371;80;28621;-84
2021/09/01 13:58:44;;;;;;;6.67;4.15;;;;;;;22.55;67.04;99453.19;4341125;80;28454;-84
2021/09/01 14:04:46;;;;;;;7.30;4.05;;;;;;;22.73;62.01;99478.89;4393816;78;28540;-84
2021/09/01 14:10:47;;;;;;;6.25;4.42;;;;;;;22.36;61.37;99457.33;4334848;80;28491;-84
2021/09/01 14:16:50;;;;;;;7.28;4.12;;;;;;;22.26;61.42;99453.64;4367394;80;28584;-83
2021/09/01 14:22:51;;;;;;;6.03;4.00;;;;;;;22.15;62.78;99450.24;4359915;80;28515;-84
2021/09/01 14:28:52;;;;;;;6.62;4.62;;;;;;;22.21;65.47;99467.41;4331035;80;28517;-86
2021/09/01 14:34:53;;;;;;;8.55;4.62;;;;;;;22.04;72.52;99477.53;4350721;80;28471;-86
2021/09/01 14:40:55;;;;;;;5.62;3.85;;;;;;;21.52;78.76;99479.59;4347095;80;28450;-86
2021/09/01 14:46:56;;;;;;;7.12;4.97;;;;;;;20.92;85.04;99486.30;4325407;80;28537;-87
2021/09/01 14:52:58;;;;;;;7.00;4.97;;;;;;;21.30;83.57;99493.83;4321697;80;28439;-87
2021/09/01 14:59:00;;;;;;;9.05;4.35;;;;;;;21.11;85.11;99497.86;4299810;80;28543;-86
2021/09/01 15:05:01;;;;;;;6.97;3.95;;;;;;;20.79;85.66;99488.32;4326492;80;28462;-88
2021/09/01 15:11:02;;;;;;;6.97;4.42;;;;;;;20.94;85.39;99490.12;4345333;80;28470;-85
2021/09/01 15:17:04;;;;;;;7.65;4.30;;;;;;;20.88;87.63;99492.92;4315831;80;28555;-85
2021/09/01 15:23:06;;;;;;;8.60;4.35;;;;;;;20.83;88.90;99492.16;4333189;80;28571;-84
2021/09/01 15:29:07;;;;;;;6.58;4.42;;;;;;;21.07;87.92;99492.16;4324762;80;28513;-85
2021/09/01 15:35:10;;;;;;;8.68;4.80;;;;;;;21.26;88.29;99493.59;4351784;80;28439;-85
2021/09/01 15:41:14;;;;;;;7.25;4.22;;;;;;;21.29;87.94;99488.08;4339460;80;28456;-85
2021/09/01 15:47:17;;;;;;;6.33;4.45;;;;;;;21.80;82.86;99480.34;4317799;80;28468;-86
2021/09/01 15:53:19;;;;;;;9.20;4.75;;;;;;;22.08;81.32;99476.38;4335391;80;28527;-85
2021/09/01 15:59:23;;;;;;;8.03;4.85;;;;;;;22.13;82.82;99478.48;4338760;80;28467;-85
2021/09/01 16:05:26;;;;;;;8.40;4.78;;;;;;;22.01;82.85;99472.66;4342572;80;28505;-84
2021/09/01 16:11:30;;;;;;;8.50;5.25;;;;;;;21.97;83.84;99471.06;4326919;80;28528;-85
2021/09/01 16:17:49;;;;;;;8.30;5.00;;;;;;;21.95;84.15;99459.61;4353160;80;28544;-86
2021/09/01 16:23:52;;;;;;;9.03;5.00;;;;;;;22.02;83.84;99474.28;4317593;80;28507;-84
2021/09/01 16:29:59;;;;;;;9.40;4.72;;;;;;;21.96;83.56;99470.81;4324884;80;28488;-85
2021/09/01 16:36:01;;;;;;;8.53;4.62;;;;;;;22.11;83.85;99477.15;4348987;80;28544;-85
2021/09/01 16:42:03;;;;;;;7.58;4.40;;;;;;;21.78;88.33;99473.81;4337394;80;28546;-85
2021/09/01 16:48:10;;;;;;;9.63;5.05;;;;;;;21.57;88.89;99475.44;4344990;80;28519;-84
2021/09/01 16:54:14;;;;;;;9.03;5.03;;;;;;;21.55;88.84;99483.09;4398728;80;28508;-84
2021/09/01 17:00:18;;;;;;;11.05;5.67;;;;;;;21.44;90.52;99489.81;4321336;80;28541;-85
2021/09/01 17:06:21;;;;;;;8.80;5.40;;;;;;;21.30;94.03;99496.00;4371225;79;28512;-86
2021/09/01 17:12:23;;;;;;;10.25;5.40;;;;;;;21.41;94.29;99499.98;4336964;80;28546;-86
2021/09/01 17:18:27;;;;;;;9.05;5.22;;;;;;;21.17;96.11;99497.50;4340528;80;28504;-84
2021/09/01 17:24:29;;;;;;;10.35;6.05;;;;;;;20.98;98.25;99511.12;4343216;80;28514;-85
2021/09/01 17:30:30;;;;;;;9.83;5.75;;;;;;;20.88;99.68;99513.95;4341953;80;28492;-83
2021/09/01 17:36:34;;;;;;;10.68;6.10;;;;;;;20.76;99.53;99522.49;4353812;80;28531;-87
2021/09/01 17:42:43;;;;;;;10.32;5.30;;;;;;;20.55;100.00;99524.61;4341093;80;28513;-87
2021/09/01 17:48:47;;;;;;;11.08;6.25;;;;;;;20.43;100.00;99531.78;4341111;80;28464;-87
2021/09/01 17:54:52;;;;;;;10.28;6.22;;;;;;;20.36;100.00;99538.94;4322289;80;28464;-88
2021/09/01 18:00:58;;;;;;;11.48;6.40;;;;;;;20.33;100.00;99546.34;4342253;80;28504;-91
2021/09/01 18:06:58;;;;;;;13.72;6.28;;;;;;;20.00;100.00;99555.56;4332793;80;28422;-87
2021/09/01 18:12:59;;;;;;;12.00;6.22;;;;;;;20.10;100.00;99562.33;4343364;80;28523;-88
2021/09/01 18:19:01;;;;;;;10.90;6.08;;;;;;;19.87;100.00;99575.49;4359091;80;28450;-89
2021/09/01 18:25:06;;;;;;;13.22;7.62;;;;;;;20.00;100.00;99577.39;4319470;80;28474;-88
2021/09/01 18:31:07;;;;;;;10.43;6.08;;;;;;;19.95;100.00;99575.51;4395175;79;28436;-87
2021/09/01 18:37:09;;;;;;;13.28;6.33;;;;;;;20.04;100.00;99586.64;4330190;80;28472;-87
2021/09/01 18:43:17;;;;;;;12.82;6.58;;;;;;;20.17;100.00;99587.95;4324828;80;28465;-88
2021/09/01 18:49:20;;;;;;;15.83;7.60;;;;;;;20.04;100.00;99591.53;4323189;80;28443;-88
2021/09/01 18:55:22;;;;;;;11.48;6.50;;;;;;;19.98;100.00;99595.94;4327021;80;28486;-87
2021/09/01 19:01:36;;;;;;;10.63;6.72;;;;;;;20.05;100.00;99596.45;4321753;80;28524;-88
2021/09/01 19:07:41;;;;;;;11.28;6.67;;;;;;;20.22;100.00;99593.36;4352543;80;28447;-88
2021/09/01 19:13:52;;;;;;;13.43;6.95;;;;;;;20.11;100.00;99594.52;4388913;80;28450;-88
2021/09/01 19:19:52;;;;;;;14.47;8.25;;;;;;;20.09;100.00;99600.25;4427781;79;28451;-85
2021/09/01 19:25:53;;;;;;;13.30;7.00;;;;;;;19.95;100.00;99601.43;4347784;80;28478;-88
2021/09/01 19:31:56;;;;;;;14.55;8.15;;;;;;;20.03;100.00;99598.66;4357808;80;28497;-89
2021/09/01 19:38:12;;;;;;;14.13;7.08;;;;;;;20.15;100.00;99603.23;4386261;79;28464;-87
2021/09/01 19:44:08;;;;;;;12.00;7.00;;;;;;;20.11;100.00;99615.81;4371275;79;28469;-87
2021/09/01 19:50:13;;;;;;;16.95;7.62;;;;;;;20.27;100.00;99618.45;4404193;78;28568;-87
2021/09/01 19:56:17;;;;;;;11.90;8.00;;;;;;;20.17;100.00;99626.16;4318703;81;28450;-89
2021/09/01 20:02:21;;;;;;;16.45;7.78;;;;;;;19.93;100.00;99625.42;4347770;79;28521;-87
2021/09/01 20:08:22;;;;;;;15.80;8.08;;;;;;;19.90;100.00;99630.06;4361996;79;28451;-90
2021/09/01 20:14:24;;;;;;;14.90;7.83;;;;;;;19.99;100.00;99628.41;4393212;79;28456;-89
2021/09/01 20:20:26;;;;;;;13.45;7.83;;;;;;;19.92;100.00;99633.31;4374750;79;28483;-90
2021/09/01 20:26:29;;;;;;;14.23;7.40;;;;;;;19.81;100.00;99630.36;4372327;79;28460;-90
2021/09/01 20:32:30;;;;;;;16.02;8.28;;;;;;;19.86;100.00;99627.63;4370009;79;28526;-87
2021/09/01 20:38:31;;;;;;;16.48;8.28;;;;;;;20.26;100.00;99640.02;4360675;79;28545;-88
2021/09/01 20:44:43;;;;;;;16.52;9.15;;;;;;;20.20;100.00;99644.16;4338352;81;28624;-88
2021/09/01 20:50:47;;;;;;;16.57;8.18;;;;;;;19.87;100.00;99657.91;4364991;79;28499;-87
2021/09/01 20:56:49;;;;;;;14.55;8.28;;;;;;;20.01;100.00;99661.70;4378621;79;28511;-86
2021/09/01 21:02:52;;;;;;;19.65;8.93;;;;;;;19.89;100.00;99665.27;4369481;79;28546;-88
2021/09/01 21:08:55;;;;;;;14.25;8.25;;;;;;;20.01;100.00;99673.17;4376210;81;28477;-88
2021/09/01 21:14:59;;;;;;;17.42;8.85;;;;;;;20.23;100.00;99671.99;4383486;79;28864;-88
2021/09/01 21:21:02;;;;;;;14.75;7.90;;;;;;;20.13;100.00;99670.94;4393583;79;28433;-90
2021/09/01 21:27:05;;;;;;;18.80;7.97;;;;;;;19.97;100.00;99677.54;4351874;81;28549;-87
2021/09/01 21:33:10;;;;;;;18.23;8.80;;;;;;;19.98;100.00;99677.80;4415994;80;28460;-87
2021/09/01 21:39:12;;;;;;;18.30;9.50;;;;;;;20.12;100.00;99687.59;4429098;79;34762;-88
2021/09/01 21:45:17;;;;;;;16.62;9.23;;;;;;;19.93;100.00;99677.27;4449562;79;28563;-86
2021/09/01 21:51:18;;;;;;;19.10;9.30;;;;;;;19.97;100.00;99688.45;4385474;80;28467;-87
2021/09/01 21:57:20;;;;;;;20.17;10.05;;;;;;;19.99;100.00;99687.09;4443092;80;28533;-87
2021/09/01 22:03:21;;;;;;;21.57;10.43;;;;;;;20.22;100.00;99690.27;4449620;80;28469;-86
2021/09/01 22:09:24;;;;;;;15.83;8.78;;;;;;;20.11;100.00;99690.05;4442558;80;28452;-87
2021/09/01 22:15:27;;;;;;;16.93;9.08;;;;;;;20.27;100.00;99694.36;4446850;80;28495;-87
2021/09/01 22:21:28;;;;;;;16.40;8.48;;;;;;;20.07;100.00;99691.15;4329768;80;28546;-88
2021/09/01 22:27:30;;;;;;;15.15;9.05;;;;;;;20.16;100.00;99690.05;4298917;81;28478;-86
2021/09/01 22:33:31;;;;;;;16.23;8.55;;;;;;;20.09;100.00;99688.95;4287855;83;28583;-87
2021/09/01 22:39:32;;;;;;;15.63;8.53;;;;;;;20.30;100.00;99685.60;4344994;81;28516;-87
2021/09/01 22:45:34;;;;;;;16.80;8.85;;;;;;;20.18;100.00;99691.94;4434233;80;28486;-87
2021/09/01 22:51:35;;;;;;;17.70;8.83;;;;;;;20.01;100.00;99685.45;4432976;80;28456;-88
2021/09/01 22:57:36;;;;;;;15.80;8.08;;;;;;;19.96;100.00;99680.00;4433375;80;28517;-87
2021/09/01 23:03:38;;;;;;;16.50;8.93;;;;;;;20.09;100.00;99683.49;4433728;80;28508;-87
2021/09/01 23:09:39;;;;;;;16.20;8.93;;;;;;;20.30;100.00;99673.31;4434151;80;28578;-87
2021/09/01 23:15:40;;;;;;;17.30;8.60;;;;;;;20.22;100.00;99673.89;4434115;80;28519;-86
2021/09/01 23:21:42;;;;;;;16.75;9.48;;;;;;;20.30;100.00;99670.59;4478617;79;28639;-86
2021/09/01 23:27:43;;;;;;;16.20;8.80;;;;;;;20.42;100.00;99664.80;4427981;80;28496;-86
2021/09/01 23:33:44;;;;;;;15.72;8.88;;;;;;;20.38;100.00;99657.45;4430497;80;28458;-86
2021/09/01 23:39:46;;;;;;;18.40;9.25;;;;;;;20.08;100.00;99653.77;4445799;80;28484;-86
2021/09/01 23:45:47;;;;;;;19.57;8.68;;;;;;;20.04;100.00;99654.30;4426869;80;28543;-85
2021/09/01 23:51:48;;;;;;;17.77;8.88;;;;;;;19.85;100.00;99646.47;4451102;80;28512;-87
2021/09/01 23:57:50;;;;;;;16.75;8.35;;;;;;;19.87;100.00;99630.63;4451498;80;28473;-86
